Time;durP1;ratioP1;P1;durP2;ratioP2;P2;SDS_P1;SDS_P2;PMS_P1;PMS_P2;Temp;Humidity;BMP_temperature;BMP_pressure;BME280_temperature;BME280_humidity;BME280_pressure;Samples;Min_cycle;Max_cycle;Signal;HPM_P1;HPM_P2
2022/10/19 00:02:02;;;;;;;18.27;8.73;;;8.90;99.90;;;;;;5017242;28;20408;-72
2022/10/19 00:04:28;;;;;;;21.27;8.35;;;8.70;99.90;;;;;;5016017;28;20809;-72
2022/10/19 00:06:54;;;;;;;24.58;8.88;;;8.70;99.90;;;;;;5015529;28;20418;-73
2022/10/19 00:09:19;;;;;;;21.73;8.20;;;8.50;99.90;;;;;;5015207;28;20393;-72
2022/10/19 00:11:47;;;;;;;27.70;8.30;;;8.50;99.90;;;;;;4997825;28;20389;-73
2022/10/19 00:14:19;;;;;;;23.90;8.20;;;8.60;99.90;;;;;;5015881;28;20588;-72
2022/10/19 00:16:46;;;;;;;16.33;8.07;;;8.60;99.90;;;;;;5064801;22;20947;-72
2022/10/19 00:19:15;;;;;;;20.20;7.45;;;8.70;99.90;;;;;;5056503;28;20376;-71
2022/10/19 00:21:41;;;;;;;16.58;6.95;;;8.80;99.90;;;;;;5054562;28;20450;-72
2022/10/19 00:24:07;;;;;;;16.50;6.68;;;9.00;99.90;;;;;;5054130;28;20386;-70
2022/10/19 00:26:33;;;;;;;16.73;6.70;;;8.90;99.90;;;;;;5053295;28;20476;-72
2022/10/19 00:28:59;;;;;;;19.40;6.70;;;8.90;99.90;;;;;;5054222;28;20409;-71
2022/10/19 00:31:25;;;;;;;12.40;6.60;;;8.90;99.90;;;;;;5052983;28;20386;-71
2022/10/19 00:33:52;;;;;;;24.52;7.50;;;8.70;99.90;;;;;;5053252;28;20464;-73
2022/10/19 00:36:20;;;;;;;15.20;6.90;;;8.60;99.90;;;;;;5053108;28;20385;-72
2022/10/19 00:38:45;;;;;;;15.20;7.40;;;8.70;99.90;;;;;;5052749;28;20390;-71
2022/10/19 00:41:11;;;;;;;18.42;6.90;;;8.80;99.90;;;;;;5052395;28;20417;-73
2022/10/19 00:44:12;;;;;;;18.92;6.90;;;8.90;99.90;;;;;;5052700;28;20430;-70
2022/10/19 00:46:40;;;;;;;11.77;6.10;;;9.10;99.90;;;;;;5010191;28;20386;-71
2022/10/19 00:49:08;;;;;;;16.42;6.20;;;9.20;99.90;;;;;;5053609;28;20377;-71
2022/10/19 00:51:38;;;;;;;15.95;6.65;;;8.80;99.90;;;;;;5053068;28;20746;-71
2022/10/19 00:54:05;;;;;;;14.60;6.70;;;8.60;99.90;;;;;;5053280;28;20397;-72
2022/10/19 00:56:31;;;;;;;15.13;7.13;;;8.40;99.90;;;;;;5053047;28;20385;-72
2022/10/19 00:58:57;;;;;;;25.42;7.85;;;8.30;99.90;;;;;;5053182;28;20393;-72
2022/10/19 01:01:26;;;;;;;13.65;6.80;;;8.30;99.90;;;;;;5052779;28;20397;-71
2022/10/19 01:03:51;;;;;;;16.55;6.97;;;8.40;99.90;;;;;;5053195;28;20378;-71
2022/10/19 01:06:18;;;;;;;15.13;6.45;;;8.60;99.90;;;;;;5053263;28;20431;-72
2022/10/19 01:08:44;;;;;;;19.13;6.72;;;8.60;99.90;;;;;;5052782;28;20412;-72
2022/10/19 01:11:37;;;;;;;20.80;6.40;;;8.70;99.90;;;;;;5052557;28;20390;-73
2022/10/19 01:14:13;;;;;;;14.03;7.63;;;8.70;99.90;;;;;;5052128;28;20387;-72
2022/10/19 01:16:57;;;;;;;22.63;6.80;;;8.60;99.90;;;;;;5051836;28;20398;-72
2022/10/19 01:19:53;;;;;;;16.93;6.73;;;8.70;99.90;;;;;;5052106;28;20878;-73
2022/10/19 01:22:34;;;;;;;22.50;7.30;;;8.50;99.90;;;;;;5052391;28;20393;-72
2022/10/19 01:25:23;;;;;;;16.98;7.03;;;8.30;99.90;;;;;;5052568;28;20483;-72
2022/10/19 01:28:26;;;;;;;23.92;8.18;;;8.10;99.90;;;;;;5052055;28;20389;-72
2022/10/19 01:30:58;;;;;;;12.10;6.43;;;8.20;99.90;;;;;;5052062;28;20407;-72
2022/10/19 01:33:33;;;;;;;11.75;6.50;;;8.10;99.90;;;;;;5033860;28;20449;-72
2022/10/19 01:36:11;;;;;;;19.13;6.65;;;8.40;99.90;;;;;;5051462;28;20392;-72
2022/10/19 01:38:49;;;;;;;18.48;7.00;;;8.60;99.90;;;;;;5051657;28;20866;-72
2022/10/19 01:41:44;;;;;;;20.23;7.80;;;8.60;99.90;;;;;;5051373;28;20397;-72
2022/10/19 01:44:16;;;;;;;19.25;6.72;;;8.60;99.90;;;;;;5033597;28;20398;-72
2022/10/19 01:47:03;;;;;;;16.90;6.90;;;8.60;99.90;;;;;;5051739;28;20444;-72
2022/10/19 01:49:39;;;;;;;18.63;7.07;;;8.80;99.90;;;;;;5051757;28;20485;-72
2022/10/19 01:52:08;;;;;;;25.60;8.00;;;8.80;99.90;;;;;;5051762;28;20420;-72
2022/10/19 01:54:38;;;;;;;18.25;6.82;;;8.70;99.90;;;;;;5051377;28;20385;-72
2022/10/19 01:57:07;;;;;;;23.15;7.55;;;8.80;99.90;;;;;;5051108;28;20435;-72
2022/10/19 01:59:35;;;;;;;20.27;7.32;;;8.60;99.90;;;;;;5051225;28;20481;-72
2022/10/19 02:02:03;;;;;;;19.38;7.60;;;8.40;99.90;;;;;;5050878;28;20393;-72
2022/10/19 02:04:30;;;;;;;19.27;7.20;;;8.50;99.90;;;;;;5051116;28;20393;-73
2022/10/19 02:06:56;;;;;;;16.52;7.13;;;8.50;99.90;;;;;;5050987;28;20793;-73
2022/10/19 02:09:22;;;;;;;18.35;7.13;;;8.40;99.90;;;;;;5050544;28;20388;-73
2022/10/19 02:11:55;;;;;;;24.97;8.80;;;8.20;99.90;;;;;;5050852;28;20393;-72
2022/10/19 02:14:26;;;;;;;18.13;7.40;;;8.40;99.90;;;;;;5051067;28;20788;-73
2022/10/19 02:16:58;;;;;;;16.55;7.30;;;8.40;99.90;;;;;;5032897;28;20558;-73
2022/10/19 02:19:23;;;;;;;22.70;8.65;;;8.10;99.90;;;;;;5051188;28;20385;-72
2022/10/19 02:21:50;;;;;;;20.13;8.77;;;7.90;99.90;;;;;;5054502;28;20405;-73
2022/10/19 02:24:16;;;;;;;28.15;9.30;;;7.90;99.90;;;;;;5063006;28;20401;-72
2022/10/19 02:26:42;;;;;;;25.45;8.80;;;7.80;99.90;;;;;;5053237;28;20381;-73
2022/10/19 02:29:10;;;;;;;23.45;7.70;;;8.10;99.90;;;;;;5052342;28;20377;-72
2022/10/19 02:31:35;;;;;;;21.60;9.10;;;8.40;99.90;;;;;;5033358;28;20754;-72
2022/10/19 02:34:01;;;;;;;24.53;9.40;;;8.20;99.90;;;;;;5050974;28;20435;-72
2022/10/19 02:36:27;;;;;;;24.23;10.00;;;8.20;99.90;;;;;;5051311;28;20745;-73
2022/10/19 02:38:53;;;;;;;25.10;9.30;;;8.20;99.90;;;;;;5051318;28;20397;-72
2022/10/19 02:41:38;;;;;;;28.15;9.70;;;8.20;99.90;;;;;;5032628;28;20473;-73
2022/10/19 02:44:11;;;;;;;25.67;9.40;;;8.20;99.90;;;;;;5050661;28;20450;-72
2022/10/19 02:46:43;;;;;;;24.98;9.90;;;8.10;99.90;;;;;;5050896;28;20385;-72
2022/10/19 02:49:10;;;;;;;27.65;9.80;;;7.90;99.90;;;;;;5050780;28;20489;-72
2022/10/19 02:51:56;;;;;;;22.33;9.52;;;7.90;99.90;;;;;;5050492;28;20385;-72
2022/10/19 02:54:22;;;;;;;24.40;9.88;;;7.80;99.90;;;;;;5049427;28;20446;-72
2022/10/19 02:56:48;;;;;;;25.90;10.70;;;7.70;99.90;;;;;;5050879;28;20377;-72
2022/10/19 02:59:14;;;;;;;20.33;9.80;;;7.60;99.90;;;;;;5051083;28;20768;-73
2022/10/19 03:01:39;;;;;;;30.17;11.50;;;7.50;99.90;;;;;;5051476;28;20750;-72
2022/10/19 03:04:05;;;;;;;28.95;10.50;;;7.50;99.90;;;;;;5053506;28;20747;-72
2022/10/19 03:06:30;;;;;;;23.00;10.23;;;7.40;99.90;;;;;;5057706;28;20401;-72
2022/10/19 03:08:56;;;;;;;24.17;9.95;;;7.60;99.90;;;;;;5055866;28;20485;-72
2022/10/19 03:11:21;;;;;;;24.42;9.30;;;7.80;99.90;;;;;;5050368;28;20438;-72
2022/10/19 03:13:47;;;;;;;27.57;9.10;;;7.90;99.90;;;;;;5048921;28;20412;-71
2022/10/19 03:16:12;;;;;;;19.93;8.87;;;8.00;99.90;;;;;;5049967;28;20397;-72
2022/10/19 03:18:38;;;;;;;22.75;9.07;;;7.80;99.90;;;;;;5032402;28;20394;-72
2022/10/19 03:21:13;;;;;;;19.70;9.07;;;7.60;99.90;;;;;;5052382;28;20747;-72
2022/10/19 03:23:39;;;;;;;23.70;10.50;;;7.50;99.90;;;;;;5053845;28;20389;-72
2022/10/19 03:26:07;;;;;;;22.83;9.77;;;7.40;99.90;;;;;;5053680;28;20385;-72
2022/10/19 03:28:33;;;;;;;18.10;8.63;;;7.40;99.90;;;;;;5035980;28;20411;-72
2022/10/19 03:30:58;;;;;;;26.83;9.00;;;7.60;99.90;;;;;;5053746;28;20381;-72
2022/10/19 03:33:24;;;;;;;18.85;8.65;;;7.80;99.90;;;;;;5053779;28;20393;-72
2022/10/19 03:35:50;;;;;;;21.40;8.27;;;7.80;99.90;;;;;;5053681;28;20859;-72
2022/10/19 03:38:16;;;;;;;18.25;8.25;;;7.70;99.90;;;;;;5053615;28;20750;-72
2022/10/19 03:40:42;;;;;;;19.90;8.40;;;7.60;99.90;;;;;;5053639;28;20393;-72
2022/10/19 03:43:08;;;;;;;28.63;9.50;;;7.50;99.90;;;;;;5053507;28;20392;-72
2022/10/19 03:45:33;;;;;;;23.13;9.37;;;7.30;99.90;;;;;;5053952;28;20882;-72
2022/10/19 03:47:59;;;;;;;19.63;9.30;;;7.30;99.90;;;;;;5053683;28;20373;-72
2022/10/19 03:50:24;;;;;;;28.37;9.13;;;7.20;99.90;;;;;;5053603;28;20881;-72
2022/10/19 03:52:50;;;;;;;23.97;8.80;;;7.60;99.90;;;;;;5053277;28;20842;-71
2022/10/19 03:55:16;;;;;;;23.10;9.30;;;7.70;99.90;;;;;;5053563;28;20382;-72
2022/10/19 03:57:42;;;;;;;18.10;9.10;;;7.60;99.90;;;;;;5053746;28;20469;-72
2022/10/19 04:00:08;;;;;;;23.25;9.65;;;7.50;99.90;;;;;;5053981;28;20977;-72
2022/10/19 04:02:34;;;;;;;18.00;8.98;;;7.40;99.90;;;;;;5053435;28;20397;-72
2022/10/19 04:05:00;;;;;;;24.73;8.97;;;7.50;99.90;;;;;;5053348;28;20390;-73
2022/10/19 04:07:25;;;;;;;21.50;8.70;;;7.70;99.90;;;;;;5053689;28;20384;-72
2022/10/19 04:09:51;;;;;;;17.67;8.37;;;7.80;99.90;;;;;;5057196;28;20396;-72
2022/10/19 04:12:16;;;;;;;20.80;9.50;;;7.80;99.90;;;;;;5053798;28;20460;-73
2022/10/19 04:14:42;;;;;;;18.83;9.40;;;7.70;99.90;;;;;;5060838;28;20442;-72
2022/10/19 04:17:09;;;;;;;20.97;9.53;;;7.60;99.90;;;;;;5067463;28;20425;-72
2022/10/19 04:19:34;;;;;;;20.30;9.20;;;7.40;99.90;;;;;;5071779;28;20413;-72
2022/10/19 04:22:00;;;;;;;20.90;10.17;;;7.30;99.90;;;;;;5069964;28;20858;-72
2022/10/19 04:24:26;;;;;;;25.17;9.68;;;7.10;99.90;;;;;;5046728;28;20393;-73
2022/10/19 04:26:53;;;;;;;22.67;9.50;;;7.10;99.90;;;;;;5060940;28;20408;-72
2022/10/19 04:29:22;;;;;;;18.23;9.00;;;7.10;99.90;;;;;;5056747;28;20381;-72
2022/10/19 04:31:48;;;;;;;22.87;9.40;;;7.40;99.90;;;;;;5061535;28;20390;-72
2022/10/19 04:34:14;;;;;;;19.80;9.20;;;7.60;99.90;;;;;;5056527;28;20389;-72
2022/10/19 04:36:40;;;;;;;26.52;9.93;;;7.40;99.90;;;;;;5052906;28;20385;-72
2022/10/19 04:39:06;;;;;;;33.53;12.40;;;7.20;99.90;;;;;;5052961;28;20393;-72
2022/10/19 04:41:32;;;;;;;22.93;10.07;;;7.10;99.90;;;;;;5034503;28;20758;-72
2022/10/19 04:44:00;;;;;;;17.55;9.52;;;7.10;99.90;;;;;;5052705;28;20432;-72
2022/10/19 04:46:27;;;;;;;22.98;10.07;;;7.30;99.90;;;;;;5052344;28;20390;-73
2022/10/19 04:48:54;;;;;;;22.85;10.98;;;7.20;99.90;;;;;;5052256;28;20385;-72
2022/10/19 04:51:20;;;;;;;24.25;10.55;;;7.10;99.90;;;;;;5051841;28;20785;-73
2022/10/19 04:53:46;;;;;;;23.90;10.63;;;7.10;99.90;;;;;;5052205;28;20507;-73
2022/10/19 04:56:20;;;;;;;20.35;10.02;;;7.20;99.90;;;;;;5051969;28;20480;-73
2022/10/19 04:58:47;;;;;;;23.20;10.67;;;7.30;99.90;;;;;;5053020;28;20385;-73
2022/10/19 05:01:18;;;;;;;33.72;11.63;;;7.20;99.90;;;;;;5051958;28;20400;-73
2022/10/19 05:03:44;;;;;;;21.33;11.48;;;7.00;99.90;;;;;;5052295;28;20443;-72
2022/10/19 05:06:11;;;;;;;23.65;11.05;;;7.30;99.90;;;;;;5051894;28;20408;-71
2022/10/19 05:08:38;;;;;;;26.13;12.60;;;7.50;99.90;;;;;;5052300;28;20384;-72
2022/10/19 05:11:06;;;;;;;26.15;12.15;;;7.50;99.90;;;;;;5051823;28;20462;-72
2022/10/19 05:13:33;;;;;;;35.90;12.88;;;7.30;99.90;;;;;;5052133;28;20803;-71
2022/10/19 05:16:00;;;;;;;27.85;12.60;;;7.30;99.90;;;;;;5051834;28;20406;-71
2022/10/19 05:18:26;;;;;;;25.17;12.30;;;7.30;99.90;;;;;;5054783;28;20455;-72
2022/10/19 05:21:00;;;;;;;31.88;13.57;;;7.40;99.90;;;;;;5054723;28;20412;-72
2022/10/19 05:23:25;;;;;;;38.33;13.45;;;7.30;99.90;;;;;;5052776;28;20447;-73
2022/10/19 05:26:02;;;;;;;49.00;14.93;;;7.20;99.90;;;;;;5037090;28;20389;-72
2022/10/19 05:28:28;;;;;;;41.28;14.20;;;7.30;99.90;;;;;;5054034;28;20374;-73
2022/10/19 05:30:54;;;;;;;39.75;16.00;;;7.30;99.90;;;;;;5051632;28;20385;-71
2022/10/19 05:33:19;;;;;;;35.80;16.20;;;7.30;99.90;;;;;;5051753;28;20438;-73
2022/10/19 05:35:45;;;;;;;39.90;15.50;;;7.40;99.90;;;;;;5051803;28;20389;-74
2022/10/19 05:38:11;;;;;;;43.17;15.90;;;7.30;99.90;;;;;;5051650;28;20439;-73
2022/10/19 05:40:36;;;;;;;27.80;15.60;;;7.20;99.90;;;;;;5051756;28;20408;-72
2022/10/19 05:43:02;;;;;;;24.63;12.90;;;7.50;99.90;;;;;;5050611;28;20385;-72
2022/10/19 05:45:27;;;;;;;28.85;14.57;;;7.70;99.90;;;;;;5050981;28;20401;-72
2022/10/19 05:47:53;;;;;;;41.53;16.70;;;7.90;99.90;;;;;;5051055;28;20386;-72
2022/10/19 05:50:18;;;;;;;35.83;15.52;;;7.80;99.90;;;;;;5051421;28;20389;-71
2022/10/19 05:52:44;;;;;;;30.48;14.93;;;7.70;99.90;;;;;;5051294;28;20377;-72
2022/10/19 05:55:09;;;;;;;34.80;15.17;;;7.80;99.90;;;;;;5051456;28;20738;-72
2022/10/19 05:57:35;;;;;;;36.03;16.50;;;7.70;99.90;;;;;;5051369;28;20416;-72
2022/10/19 06:00:02;;;;;;;29.70;15.57;;;7.70;99.90;;;;;;5051172;28;20382;-72
2022/10/19 06:02:27;;;;;;;39.03;15.93;;;8.00;99.90;;;;;;5033223;28;20459;-72
2022/10/19 06:04:54;;;;;;;39.80;15.93;;;7.90;99.90;;;;;;5032890;28;20743;-72
2022/10/19 06:07:19;;;;;;;35.43;17.70;;;7.70;99.90;;;;;;5051389;28;20804;-72
2022/10/19 06:09:48;;;;;;;33.30;16.37;;;7.70;99.90;;;;;;5051175;28;20415;-74
2022/10/19 06:12:13;;;;;;;39.30;17.50;;;7.70;99.90;;;;;;5052065;28;20749;-72
2022/10/19 06:14:39;;;;;;;32.20;15.53;;;7.80;99.90;;;;;;5055020;28;20389;-73
2022/10/19 06:17:05;;;;;;;37.60;16.90;;;7.80;99.90;;;;;;5096566;22;20434;-73
2022/10/19 06:19:31;;;;;;;38.10;16.95;;;7.90;99.90;;;;;;5091318;28;20878;-75
2022/10/19 06:21:56;;;;;;;33.65;15.38;;;7.90;99.90;;;;;;5090924;28;20401;-75
2022/10/19 06:24:22;;;;;;;32.53;16.95;;;8.20;99.90;;;;;;5090671;28;20390;-74
2022/10/19 06:26:47;;;;;;;37.60;16.83;;;8.20;99.90;;;;;;5090863;28;20948;-74
2022/10/19 06:29:13;;;;;;;36.05;16.15;;;8.30;99.90;;;;;;5090482;28;20378;-74
2022/10/19 06:31:39;;;;;;;33.85;16.77;;;8.20;99.90;;;;;;5090447;28;20381;-74
2022/10/19 06:34:04;;;;;;;34.05;16.38;;;8.40;99.90;;;;;;5090997;28;20877;-75
2022/10/19 06:36:31;;;;;;;30.52;16.08;;;8.20;99.90;;;;;;5090873;28;20389;-74
2022/10/19 06:38:58;;;;;;;38.42;17.70;;;8.30;99.90;;;;;;5090931;28;20465;-74
2022/10/19 06:41:24;;;;;;;48.50;18.33;;;8.20;99.90;;;;;;5090397;28;20956;-75
2022/10/19 06:43:51;;;;;;;37.03;16.88;;;8.30;99.90;;;;;;5090523;28;20479;-74
2022/10/19 06:46:19;;;;;;;29.02;16.58;;;8.40;99.90;;;;;;5072561;28;20447;-75
2022/10/19 06:48:56;;;;;;;32.75;18.00;;;8.40;99.90;;;;;;5092093;28;20377;-75
2022/10/19 06:51:24;;;;;;;31.45;17.10;;;8.50;99.90;;;;;;5073237;28;20386;-74
2022/10/19 06:53:49;;;;;;;33.47;17.65;;;8.50;99.90;;;;;;5092989;28;20604;-73
2022/10/19 06:56:15;;;;;;;33.17;18.03;;;8.50;99.90;;;;;;5096359;28;20374;-74
2022/10/19 06:58:41;;;;;;;30.47;17.33;;;8.50;99.90;;;;;;5077556;28;20440;-75
2022/10/19 07:01:07;;;;;;;34.87;17.67;;;8.60;99.90;;;;;;5096153;28;20393;-75
2022/10/19 07:03:34;;;;;;;37.30;17.75;;;8.70;99.90;;;;;;5078847;28;20390;-76
2022/10/19 07:06:06;;;;;;;32.00;17.00;;;8.80;99.90;;;;;;5079238;28;20390;-75
2022/10/19 07:08:32;;;;;;;51.65;18.50;;;8.90;99.90;;;;;;5097288;28;20444;-75
2022/10/19 07:11:01;;;;;;;34.67;16.77;;;8.80;99.90;;;;;;5097571;28;20855;-74
2022/10/19 07:13:28;;;;;;;33.05;17.58;;;9.00;99.90;;;;;;5098385;28;20377;-74
2022/10/19 07:16:04;;;;;;;37.53;18.35;;;8.90;99.90;;;;;;5097138;28;20393;-74
2022/10/19 07:18:30;;;;;;;31.92;19.25;;;8.80;99.90;;;;;;5096742;28;20385;-75
2022/10/19 07:21:01;;;;;;;40.25;18.17;;;8.80;99.90;;;;;;5095833;28;20401;-75
2022/10/19 07:23:28;;;;;;;36.83;18.60;;;8.90;99.90;;;;;;5078083;28;20390;-73
2022/10/19 07:25:59;;;;;;;37.47;19.35;;;9.00;99.90;;;;;;5096864;28;20477;-74
2022/10/19 07:28:25;;;;;;;33.45;19.40;;;8.90;99.90;;;;;;5098012;28;20461;-75
2022/10/19 07:30:50;;;;;;;35.27;20.43;;;9.00;99.90;;;;;;5096209;28;20430;-75
2022/10/19 07:33:16;;;;;;;35.97;20.40;;;9.10;99.90;;;;;;5094348;28;20477;-74
2022/10/19 07:35:42;;;;;;;37.30;18.80;;;9.30;99.90;;;;;;5094203;28;20404;-74
2022/10/19 07:38:07;;;;;;;29.97;18.30;;;9.60;99.90;;;;;;5094050;28;20881;-73
2022/10/19 07:40:34;;;;;;;37.60;19.00;;;9.70;99.90;;;;;;5093766;28;20393;-75
2022/10/19 07:42:59;;;;;;;37.60;19.10;;;9.70;99.90;;;;;;5093493;28;20385;-75
2022/10/19 07:45:25;;;;;;;41.53;20.15;;;9.70;99.90;;;;;;5075243;28;20867;-74
2022/10/19 07:47:50;;;;;;;35.05;18.20;;;9.90;99.90;;;;;;5093696;28;20390;-76
2022/10/19 07:50:16;;;;;;;33.28;18.20;;;10.00;99.90;;;;;;5093481;28;20516;-75
2022/10/19 07:52:41;;;;;;;32.95;18.42;;;9.90;99.90;;;;;;5093487;28;20419;-75
2022/10/19 07:55:07;;;;;;;34.27;18.07;;;10.10;99.90;;;;;;5093452;28;20374;-74
2022/10/19 07:57:33;;;;;;;30.38;17.77;;;10.50;99.90;;;;;;5093525;28;20390;-74
2022/10/19 07:59:58;;;;;;;29.20;18.07;;;10.60;99.90;;;;;;5093710;28;20734;-75
2022/10/19 08:02:24;;;;;;;38.97;17.73;;;10.70;99.90;;;;;;5093296;28;20443;-75
2022/10/19 08:04:50;;;;;;;52.00;19.10;;;10.80;99.90;;;;;;5093309;28;20905;-75
2022/10/19 08:07:15;;;;;;;37.07;17.93;;;10.90;99.90;;;;;;5092553;28;20791;-75
2022/10/19 08:09:41;;;;;;;35.73;15.33;;;10.90;99.90;;;;;;5093494;28;20384;-75
2022/10/19 08:12:06;;;;;;;28.43;16.10;;;11.00;99.90;;;;;;5093329;28;20489;-75
2022/10/19 08:14:32;;;;;;;28.88;13.82;;;11.00;99.90;;;;;;5093270;28;20386;-75
2022/10/19 08:16:58;;;;;;;33.65;14.85;;;11.20;99.90;;;;;;5095241;28;20401;-76
2022/10/19 08:19:23;;;;;;;25.35;13.20;;;11.30;99.90;;;;;;5093759;28;20429;-74
2022/10/19 08:21:49;;;;;;;21.53;12.50;;;11.50;93.10;;;;;;5094713;28;20827;-74
2022/10/19 08:24:16;;;;;;;24.67;12.07;;;11.80;87.70;;;;;;5093790;28;20386;-75
2022/10/19 08:26:42;;;;;;;23.00;11.57;;;12.00;86.60;;;;;;5092743;28;20371;-75
2022/10/19 08:29:14;;;;;;;26.73;14.33;;;12.10;86.80;;;;;;5092601;28;20511;-75
2022/10/19 08:31:40;;;;;;;24.58;11.35;;;12.00;88.70;;;;;;5093205;28;20402;-75
2022/10/19 08:34:06;;;;;;;24.27;11.17;;;12.10;83.30;;;;;;5093275;28;20408;-74
2022/10/19 08:36:34;;;;;;;18.17;10.15;;;12.30;80.10;;;;;;5093175;28;20847;-74
2022/10/19 08:39:01;;;;;;;19.60;9.70;;;12.50;75.50;;;;;;5093555;28;20396;-76
2022/10/19 08:41:31;;;;;;;22.02;9.35;;;12.60;73.70;;;;;;5093219;28;20393;-75
2022/10/19 08:44:05;;;;;;;22.75;9.50;;;12.60;68.70;;;;;;5094339;28;20486;-76
2022/10/19 08:46:40;;;;;;;25.00;10.32;;;12.70;67.00;;;;;;5093096;28;20389;-74
2022/10/19 08:49:17;;;;;;;15.95;8.63;;;12.70;67.90;;;;;;5092601;28;20889;-76
2022/10/19 08:51:45;;;;;;;15.73;7.20;;;12.80;64.80;;;;;;5092121;28;20374;-75
2022/10/19 08:54:16;;;;;;;17.00;8.20;;;12.80;61.10;;;;;;5092202;28;20397;-75
2022/10/19 08:56:52;;;;;;;18.58;7.45;;;12.90;66.40;;;;;;5092556;28;20374;-76
2022/10/19 08:59:24;;;;;;;18.35;7.63;;;12.80;64.20;;;;;;5092552;28;20382;-75
2022/10/19 09:01:55;;;;;;;16.70;7.30;;;12.90;62.80;;;;;;5092193;28;20770;-75
2022/10/19 09:04:23;;;;;;;17.20;7.22;;;13.10;62.40;;;;;;5092340;28;20464;-75
2022/10/19 09:07:27;;;;;;;17.23;5.78;;;13.10;61.70;;;;;;5092402;28;20458;-75
2022/10/19 09:10:15;;;;;;;12.10;6.85;;;13.20;60.60;;;;;;5092654;28;20377;-75
2022/10/19 09:12:58;;;;;;;21.05;6.82;;;13.40;60.80;;;;;;5093125;28;20855;-76
2022/10/19 09:15:49;;;;;;;16.13;6.68;;;13.40;58.90;;;;;;5093778;28;20385;-76
2022/10/19 09:18:22;;;;;;;16.50;6.40;;;13.40;58.20;;;;;;5091659;28;20382;-75
2022/10/19 09:20:51;;;;;;;13.18;5.90;;;13.50;58.00;;;;;;5094012;28;20415;-75
2022/10/19 09:23:38;;;;;;;16.90;6.32;;;13.50;56.00;;;;;;5094727;28;20390;-75
2022/10/19 09:26:15;;;;;;;21.85;6.50;;;13.60;57.90;;;;;;5094977;28;20465;-75
2022/10/19 09:29:10;;;;;;;13.20;4.47;;;13.70;58.40;;;;;;5074495;28;20386;-75
2022/10/19 09:31:39;;;;;;;16.85;5.63;;;13.80;51.90;;;;;;5092727;28;20830;-75
2022/10/19 09:34:16;;;;;;;20.05;6.00;;;13.80;53.00;;;;;;5092602;28;20398;-75
2022/10/19 09:36:48;;;;;;;11.70;4.30;;;14.00;52.90;;;;;;5091957;28;20432;-75
2022/10/19 09:39:13;;;;;;;12.45;4.70;;;14.10;49.80;;;;;;5092222;28;20418;-75
2022/10/19 09:41:58;;;;;;;13.63;4.70;;;14.20;48.50;;;;;;5092592;28;20509;-75
2022/10/19 09:44:25;;;;;;;10.65;4.32;;;14.30;49.00;;;;;;5097775;28;20383;-75
2022/10/19 09:46:54;;;;;;;11.50;4.28;;;14.40;47.50;;;;;;5096447;28;20374;-75
2022/10/19 09:49:39;;;;;;;14.68;3.80;;;14.40;45.70;;;;;;5098431;28;20374;-74
2022/10/19 09:52:35;;;;;;;12.82;4.80;;;14.50;44.30;;;;;;5099893;28;20374;-75
2022/10/19 09:55:03;;;;;;;10.93;4.20;;;14.50;44.10;;;;;;5097030;28;20381;-74
2022/10/19 09:57:29;;;;;;;19.77;6.28;;;14.60;45.30;;;;;;5097661;28;20401;-74
2022/10/19 09:59:55;;;;;;;16.40;4.78;;;14.50;46.70;;;;;;5094011;28;20386;-75
2022/10/19 10:02:28;;;;;;;13.30;5.15;;;14.40;46.00;;;;;;5092429;28;20428;-75
2022/10/19 10:05:01;;;;;;;13.18;4.60;;;14.40;46.50;;;;;;5092362;28;20888;-74
2022/10/19 10:07:34;;;;;;;13.40;5.18;;;14.70;42.80;;;;;;5092361;28;20381;-75
2022/10/19 10:09:59;;;;;;;16.23;4.60;;;14.70;45.60;;;;;;5093645;28;20366;-74
2022/10/19 10:12:25;;;;;;;14.60;5.22;;;14.70;44.20;;;;;;5098434;28;20412;-74
2022/10/19 10:14:52;;;;;;;14.82;5.65;;;14.80;43.40;;;;;;5078273;28;20487;-75
2022/10/19 10:17:26;;;;;;;16.80;5.88;;;14.80;43.00;;;;;;5091462;28;20423;-75
2022/10/19 10:19:58;;;;;;;15.43;5.10;;;15.00;41.60;;;;;;5073040;28;20394;-76
2022/10/19 10:22:31;;;;;;;15.20;5.40;;;14.90;40.20;;;;;;5090621;28;20394;-75
2022/10/19 10:24:56;;;;;;;15.65;4.75;;;15.00;42.10;;;;;;5091283;28;20452;-75
2022/10/19 10:27:28;;;;;;;21.67;6.50;;;15.20;40.60;;;;;;5090980;28;20382;-74
2022/10/19 10:29:55;;;;;;;19.08;5.90;;;15.40;39.10;;;;;;5093668;28;20374;-75
2022/10/19 10:32:21;;;;;;;17.65;6.70;;;15.30;38.40;;;;;;5095504;28;20396;-74
2022/10/19 10:35:05;;;;;;;11.88;5.50;;;15.20;38.60;;;;;;5095659;28;20388;-74
2022/10/19 10:37:43;;;;;;;57.22;9.73;;;15.40;38.50;;;;;;5095658;28;20382;-74
2022/10/19 10:40:26;;;;;;;12.32;5.80;;;15.40;37.40;;;;;;5095565;28;20380;-75
2022/10/19 10:42:55;;;;;;;13.48;5.03;;;15.40;37.10;;;;;;5095095;28;20462;-75
2022/10/19 10:45:31;;;;;;;12.40;5.13;;;15.50;38.60;;;;;;5094940;28;20386;-75
2022/10/19 10:47:58;;;;;;;16.13;5.70;;;15.70;36.50;;;;;;5095365;28;20423;-75
2022/10/19 10:50:33;;;;;;;12.10;5.20;;;15.90;35.90;;;;;;5095744;28;20414;-76
2022/10/19 10:53:05;;;;;;;20.30;6.32;;;15.80;35.60;;;;;;5097422;28;20382;-76
2022/10/19 10:55:32;;;;;;;16.95;5.20;;;15.70;36.20;;;;;;5095018;28;20474;-75
2022/10/19 10:58:20;;;;;;;12.80;5.30;;;16.00;37.00;;;;;;5094560;28;20386;-76
2022/10/19 11:00:48;;;;;;;15.80;4.85;;;16.10;35.40;;;;;;5094485;28;20385;-76
2022/10/19 11:03:24;;;;;;;12.88;4.70;;;16.20;35.70;;;;;;5095472;28;20390;-75
2022/10/19 11:05:58;;;;;;;15.35;4.70;;;16.30;35.00;;;;;;5095496;28;20381;-76
2022/10/19 11:08:51;;;;;;;25.27;6.33;;;16.30;33.00;;;;;;5094353;28;20434;-75
2022/10/19 11:11:29;;;;;;;17.30;5.00;;;16.30;33.30;;;;;;5094537;28;20766;-75
2022/10/19 11:13:57;;;;;;;12.13;4.70;;;16.30;32.80;;;;;;5094790;28;20378;-75
2022/10/19 11:16:34;;;;;;;9.82;3.65;;;16.40;34.20;;;;;;5094100;28;21019;-75
2022/10/19 11:19:26;;;;;;;14.45;3.90;;;16.60;32.90;;;;;;5095120;28;20477;-75
2022/10/19 11:22:27;;;;;;;17.55;4.20;;;16.70;33.90;;;;;;5094739;28;20835;-75
2022/10/19 11:25:15;;;;;;;15.02;3.92;;;16.70;33.60;;;;;;5081190;28;20433;-75
2022/10/19 11:28:18;;;;;;;18.08;4.85;;;16.60;33.70;;;;;;5094418;28;20378;-75
2022/10/19 11:31:09;;;;;;;12.05;4.30;;;16.50;33.90;;;;;;5094178;28;20365;-75
2022/10/19 11:33:49;;;;;;;16.85;4.57;;;16.40;35.20;;;;;;5094156;28;20947;-76
2022/10/19 11:36:22;;;;;;;12.60;4.00;;;16.40;36.10;;;;;;5093971;28;20742;-75
2022/10/19 11:39:18;;;;;;;14.93;4.80;;;16.50;35.40;;;;;;5093880;28;20898;-75
2022/10/19 11:41:52;;;;;;;10.65;4.00;;;16.60;35.80;;;;;;5092487;28;20412;-75
2022/10/19 11:44:34;;;;;;;8.60;4.00;;;16.70;34.70;;;;;;5094024;28;20815;-75
2022/10/19 11:47:29;;;;;;;11.73;4.28;;;16.80;34.30;;;;;;5093790;28;20382;-75
2022/10/19 11:50:25;;;;;;;15.70;4.53;;;16.80;34.20;;;;;;5093921;28;20792;-75
2022/10/19 11:53:13;;;;;;;18.30;4.68;;;16.70;34.40;;;;;;5093596;28;20378;-75
2022/10/19 11:55:54;;;;;;;13.40;4.68;;;16.80;34.40;;;;;;5093792;28;20384;-75
2022/10/19 11:58:39;;;;;;;13.55;4.60;;;16.80;35.50;;;;;;5094062;28;20385;-75
2022/10/19 12:01:49;;;;;;;12.65;4.10;;;16.90;35.40;;;;;;5094104;28;20393;-75
2022/10/19 12:04:37;;;;;;;11.55;4.03;;;17.10;34.80;;;;;;5094607;28;20383;-75
2022/10/19 12:07:47;;;;;;;10.50;4.00;;;17.10;32.70;;;;;;5093422;28;20805;-75
2022/10/19 12:10:36;;;;;;;11.65;4.00;;;16.90;32.60;;;;;;5030874;28;20402;-76
2022/10/19 12:13:07;;;;;;;14.18;4.45;;;17.00;33.70;;;;;;5093161;28;20398;-76
2022/10/19 12:18:12;;;;;;;10.75;4.00;;;17.30;31.50;;;;;;5062092;28;20426;-74
2022/10/19 12:20:45;;;;;;;16.98;4.10;;;17.40;32.30;;;;;;5046632;28;20453;-74
2022/10/19 12:23:25;;;;;;;9.77;4.30;;;17.50;31.50;;;;;;5065115;28;20393;-73
2022/10/19 12:25:55;;;;;;;20.60;4.47;;;17.40;31.60;;;;;;5065477;28;20389;-75
2022/10/19 12:28:28;;;;;;;11.93;4.40;;;17.30;32.20;;;;;;5067121;28;20397;-73
2022/10/19 12:30:54;;;;;;;10.30;4.70;;;17.40;31.90;;;;;;5067100;28;20386;-73
2022/10/19 12:33:23;;;;;;;15.20;4.30;;;17.50;31.30;;;;;;5065931;28;20386;-74
2022/10/19 12:35:51;;;;;;;10.25;4.07;;;17.50;30.50;;;;;;5066539;28;20381;-73
2022/10/19 12:38:34;;;;;;;8.98;4.25;;;17.50;30.60;;;;;;5046867;28;20730;-74
2022/10/19 12:41:04;;;;;;;11.60;3.95;;;17.50;29.70;;;;;;5046321;28;20412;-75
2022/10/19 12:43:51;;;;;;;15.40;4.47;;;17.50;30.10;;;;;;5049393;28;20405;-74
2022/10/19 12:46:51;;;;;;;12.07;3.67;;;17.60;30.10;;;;;;5066434;28;20382;-73
2022/10/19 12:49:29;;;;;;;16.10;4.47;;;17.60;28.50;;;;;;5068747;28;20392;-72
2022/10/19 12:51:59;;;;;;;10.00;3.50;;;17.60;29.40;;;;;;5050819;28;20393;-72
2022/10/19 12:54:28;;;;;;;10.93;3.50;;;17.70;28.40;;;;;;5068329;28;20396;-71
2022/10/19 12:56:56;;;;;;;11.85;3.83;;;17.60;29.20;;;;;;5063730;28;20389;-75
2022/10/19 12:59:30;;;;;;;16.15;4.25;;;17.60;29.70;;;;;;5062358;28;20409;-74
2022/10/19 13:01:58;;;;;;;19.50;4.25;;;17.60;30.70;;;;;;5062737;28;20415;-74
2022/10/19 13:04:25;;;;;;;14.30;4.18;;;17.60;30.60;;;;;;5046686;28;20481;-74